sensor_id;sensor_type;location;lat;lon;timestamp;P1;P2;P0
49644;PMS5003;36494;50.730;-1.932;2023-03-01T00:01:29;24;23;
49644;PMS5003;36494;50.730;-1.932;2023-03-01T00:03:54;24;23;
49644;PMS5003;36494;50.730;-1.932;2023-03-01T00:06:20;19;18;
49644;PMS5003;36494;50.730;-1.932;2023-03-01T00:08:45;23;22;
49644;PMS5003;36494;50.730;-1.932;2023-03-01T00:11:11;22;21;
49644;PMS5003;36494;50.730;-1.932;2023-03-01T00:13:36;18;18;
49644;PMS5003;36494;50.730;-1.932;2023-03-01T00:16:02;22;21;
49644;PMS5003;36494;50.730;-1.932;2023-03-01T00:18:27;24;23;
49644;PMS5003;36494;50.730;-1.932;2023-03-01T00:20:54;22;21;
49644;PMS5003;36494;50.730;-1.932;2023-03-01T00:23:19;21;21;
49644;PMS5003;36494;50.730;-1.932;2023-03-01T00:25:44;25;23;
49644;PMS5003;36494;50.730;-1.932;2023-03-01T00:28:10;22;22;
49644;PMS5003;36494;50.730;-1.932;2023-03-01T00:30:34;22;20;
49644;PMS5003;36494;50.730;-1.932;2023-03-01T00:33:00;20;19;
49644;PMS5003;36494;50.730;-1.932;2023-03-01T00:35:25;22;21;
49644;PMS5003;36494;50.730;-1.932;2023-03-01T00:37:50;18;18;
49644;PMS5003;36494;50.730;-1.932;2023-03-01T00:40:16;23;22;
49644;PMS5003;36494;50.730;-1.932;2023-03-01T00:42:41;23;21;
49644;PMS5003;36494;50.730;-1.932;2023-03-01T00:45:07;23;21;
49644;PMS5003;36494;50.730;-1.932;2023-03-01T00:47:32;23;23;
49644;PMS5003;36494;50.730;-1.932;2023-03-01T00:49:57;22;21;
49644;PMS5003;36494;50.730;-1.932;2023-03-01T00:52:22;25;23;
49644;PMS5003;36494;50.730;-1.932;2023-03-01T00:54:48;26;25;
49644;PMS5003;36494;50.730;-1.932;2023-03-01T00:57:13;22;22;
49644;PMS5003;36494;50.730;-1.932;2023-03-01T00:59:38;25;24;
49644;PMS5003;36494;50.730;-1.932;2023-03-01T01:02:03;23;22;
49644;PMS5003;36494;50.730;-1.932;2023-03-01T01:04:28;23;22;
49644;PMS5003;36494;50.730;-1.932;2023-03-01T01:06:54;23;23;
49644;PMS5003;36494;50.730;-1.932;2023-03-01T01:09:19;27;27;
49644;PMS5003;36494;50.730;-1.932;2023-03-01T01:11:45;24;24;
49644;PMS5003;36494;50.730;-1.932;2023-03-01T01:14:11;27;26;
49644;PMS5003;36494;50.730;-1.932;2023-03-01T01:16:36;26;25;
49644;PMS5003;36494;50.730;-1.932;2023-03-01T01:19:02;29;27;
49644;PMS5003;36494;50.730;-1.932;2023-03-01T01:21:27;29;28;
49644;PMS5003;36494;50.730;-1.932;2023-03-01T01:23:54;25;24;
49644;PMS5003;36494;50.730;-1.932;2023-03-01T01:26:20;25;25;
49644;PMS5003;36494;50.730;-1.932;2023-03-01T01:28:45;28;27;
49644;PMS5003;36494;50.730;-1.932;2023-03-01T01:31:10;21;21;
49644;PMS5003;36494;50.730;-1.932;2023-03-01T01:33:35;24;23;
49644;PMS5003;36494;50.730;-1.932;2023-03-01T01:36:00;26;24;
49644;PMS5003;36494;50.730;-1.932;2023-03-01T01:38:26;26;25;
49644;PMS5003;36494;50.730;-1.932;2023-03-01T01:40:51;35;31;
49644;PMS5003;36494;50.730;-1.932;2023-03-01T01:43:18;24;23;
49644;PMS5003;36494;50.730;-1.932;2023-03-01T01:45:42;29;28;
49644;PMS5003;36494;50.730;-1.932;2023-03-01T01:48:10;25;25;
49644;PMS5003;36494;50.730;-1.932;2023-03-01T01:50:33;26;26;
49644;PMS5003;36494;50.730;-1.932;2023-03-01T01:52:59;27;26;
49644;PMS5003;36494;50.730;-1.932;2023-03-01T01:55:25;30;29;
49644;PMS5003;36494;50.730;-1.932;2023-03-01T01:57:50;24;23;
49644;PMS5003;36494;50.730;-1.932;2023-03-01T02:00:16;29;28;
49644;PMS5003;36494;50.730;-1.932;2023-03-01T02:02:40;27;26;
49644;PMS5003;36494;50.730;-1.932;2023-03-01T02:05:06;23;23;
49644;PMS5003;36494;50.730;-1.932;2023-03-01T02:07:31;23;22;
49644;PMS5003;36494;50.730;-1.932;2023-03-01T02:09:56;25;23;
49644;PMS5003;36494;50.730;-1.932;2023-03-01T02:12:23;21;21;
49644;PMS5003;36494;50.730;-1.932;2023-03-01T02:14:47;24;23;
49644;PMS5003;36494;50.730;-1.932;2023-03-01T02:17:13;26;24;
49644;PMS5003;36494;50.730;-1.932;2023-03-01T02:19:41;22;21;
49644;PMS5003;36494;50.730;-1.932;2023-03-01T02:22:06;24;24;
49644;PMS5003;36494;50.730;-1.932;2023-03-01T02:24:32;23;23;
49644;PMS5003;36494;50.730;-1.932;2023-03-01T02:26:55;25;24;
49644;PMS5003;36494;50.730;-1.932;2023-03-01T02:29:20;25;24;
49644;PMS5003;36494;50.730;-1.932;2023-03-01T02:31:45;27;27;
49644;PMS5003;36494;50.730;-1.932;2023-03-01T02:34:12;25;24;
49644;PMS5003;36494;50.730;-1.932;2023-03-01T02:36:37;27;27;
49644;PMS5003;36494;50.730;-1.932;2023-03-01T02:39:03;27;26;
49644;PMS5003;36494;50.730;-1.932;2023-03-01T02:41:30;31;30;
49644;PMS5003;36494;50.730;-1.932;2023-03-01T02:43:55;22;22;
49644;PMS5003;36494;50.730;-1.932;2023-03-01T02:46:21;26;26;
49644;PMS5003;36494;50.730;-1.932;2023-03-01T02:48:46;30;29;
49644;PMS5003;36494;50.730;-1.932;2023-03-01T02:51:13;29;28;
49644;PMS5003;36494;50.730;-1.932;2023-03-01T02:53:39;29;27;
49644;PMS5003;36494;50.730;-1.932;2023-03-01T02:56:01;30;27;
49644;PMS5003;36494;50.730;-1.932;2023-03-01T02:58:27;29;28;
49644;PMS5003;36494;50.730;-1.932;2023-03-01T03:00:52;30;29;
49644;PMS5003;36494;50.730;-1.932;2023-03-01T03:03:19;28;26;
49644;PMS5003;36494;50.730;-1.932;2023-03-01T03:05:43;37;34;
49644;PMS5003;36494;50.730;-1.932;2023-03-01T03:08:09;35;34;
49644;PMS5003;36494;50.730;-1.932;2023-03-01T03:10:36;32;31;
49644;PMS5003;36494;50.730;-1.932;2023-03-01T03:13:01;28;27;
49644;PMS5003;36494;50.730;-1.932;2023-03-01T03:15:26;37;35;
49644;PMS5003;36494;50.730;-1.932;2023-03-01T03:17:51;31;30;
49644;PMS5003;36494;50.730;-1.932;2023-03-01T03:20:17;33;32;
49644;PMS5003;36494;50.730;-1.932;2023-03-01T03:22:42;31;31;
49644;PMS5003;36494;50.730;-1.932;2023-03-01T03:25:07;36;33;
49644;PMS5003;36494;50.730;-1.932;2023-03-01T03:27:33;31;30;
49644;PMS5003;36494;50.730;-1.932;2023-03-01T03:29:58;29;27;
49644;PMS5003;36494;50.730;-1.932;2023-03-01T03:32:24;30;26;
49644;PMS5003;36494;50.730;-1.932;2023-03-01T03:34:49;31;31;
49644;PMS5003;36494;50.730;-1.932;2023-03-01T03:37:14;30;28;
49644;PMS5003;36494;50.730;-1.932;2023-03-01T03:39:40;29;29;
49644;PMS5003;36494;50.730;-1.932;2023-03-01T03:42:06;32;31;
49644;PMS5003;36494;50.730;-1.932;2023-03-01T03:44:31;31;30;
49644;PMS5003;36494;50.730;-1.932;2023-03-01T03:46:57;32;32;
49644;PMS5003;36494;50.730;-1.932;2023-03-01T03:49:22;31;31;
49644;PMS5003;36494;50.730;-1.932;2023-03-01T03:51:48;32;31;
49644;PMS5003;36494;50.730;-1.932;2023-03-01T03:54:14;35;34;
49644;PMS5003;36494;50.730;-1.932;2023-03-01T03:56:39;37;35;
49644;PMS5003;36494;50.730;-1.932;2023-03-01T03:59:04;35;33;
49644;PMS5003;36494;50.730;-1.932;2023-03-01T04:01:30;32;31;
49644;PMS5003;36494;50.730;-1.932;2023-03-01T04:03:55;28;26;
49644;PMS5003;36494;50.730;-1.932;2023-03-01T04:06:21;33;32;
49644;PMS5003;36494;50.730;-1.932;2023-03-01T04:08:47;29;27;
49644;PMS5003;36494;50.730;-1.932;2023-03-01T04:11:12;28;27;
49644;PMS5003;36494;50.730;-1.932;2023-03-01T04:13:38;29;29;
49644;PMS5003;36494;50.730;-1.932;2023-03-01T04:16:04;28;26;
49644;PMS5003;36494;50.730;-1.932;2023-03-01T04:18:30;27;26;
49644;PMS5003;36494;50.730;-1.932;2023-03-01T04:20:55;37;34;
49644;PMS5003;36494;50.730;-1.932;2023-03-01T04:23:20;32;31;
49644;PMS5003;36494;50.730;-1.932;2023-03-01T04:25:47;36;34;
49644;PMS5003;36494;50.730;-1.932;2023-03-01T04:28:11;33;30;
49644;PMS5003;36494;50.730;-1.932;2023-03-01T04:30:37;30;30;
49644;PMS5003;36494;50.730;-1.932;2023-03-01T04:33:03;32;30;
49644;PMS5003;36494;50.730;-1.932;2023-03-01T04:35:28;32;31;
49644;PMS5003;36494;50.730;-1.932;2023-03-01T04:37:54;32;30;
49644;PMS5003;36494;50.730;-1.932;2023-03-01T04:40:19;31;30;
49644;PMS5003;36494;50.730;-1.932;2023-03-01T04:42:44;33;32;
49644;PMS5003;36494;50.730;-1.932;2023-03-01T04:45:10;27;26;
49644;PMS5003;36494;50.730;-1.932;2023-03-01T04:47:35;29;28;
49644;PMS5003;36494;50.730;-1.932;2023-03-01T04:50:01;28;26;
49644;PMS5003;36494;50.730;-1.932;2023-03-01T04:52:26;31;30;
49644;PMS5003;36494;50.730;-1.932;2023-03-01T04:54:52;28;27;
49644;PMS5003;36494;50.730;-1.932;2023-03-01T04:57:17;28;28;
49644;PMS5003;36494;50.730;-1.932;2023-03-01T04:59:43;28;26;
49644;PMS5003;36494;50.730;-1.932;2023-03-01T05:02:09;26;26;
49644;PMS5003;36494;50.730;-1.932;2023-03-01T05:04:34;32;30;
49644;PMS5003;36494;50.730;-1.932;2023-03-01T05:06:59;31;30;
49644;PMS5003;36494;50.730;-1.932;2023-03-01T05:09:25;36;33;
49644;PMS5003;36494;50.730;-1.932;2023-03-01T05:11:50;30;29;
49644;PMS5003;36494;50.730;-1.932;2023-03-01T05:14:16;34;33;
49644;PMS5003;36494;50.730;-1.932;2023-03-01T05:16:41;32;30;
49644;PMS5003;36494;50.730;-1.932;2023-03-01T05:19:07;32;30;
49644;PMS5003;36494;50.730;-1.932;2023-03-01T05:21:32;30;30;
49644;PMS5003;36494;50.730;-1.932;2023-03-01T05:23:58;30;27;
49644;PMS5003;36494;50.730;-1.932;2023-03-01T05:26:23;34;32;
49644;PMS5003;36494;50.730;-1.932;2023-03-01T05:28:48;34;33;
49644;PMS5003;36494;50.730;-1.932;2023-03-01T05:31:14;34;34;
49644;PMS5003;36494;50.730;-1.932;2023-03-01T05:33:40;29;28;
49644;PMS5003;36494;50.730;-1.932;2023-03-01T05:36:06;30;28;
49644;PMS5003;36494;50.730;-1.932;2023-03-01T05:38:31;29;27;
49644;PMS5003;36494;50.730;-1.932;2023-03-01T05:40:56;33;33;
49644;PMS5003;36494;50.730;-1.932;2023-03-01T05:43:22;29;29;
49644;PMS5003;36494;50.730;-1.932;2023-03-01T05:45:47;35;32;
49644;PMS5003;36494;50.730;-1.932;2023-03-01T05:48:13;35;32;
49644;PMS5003;36494;50.730;-1.932;2023-03-01T05:50:39;36;33;
49644;PMS5003;36494;50.730;-1.932;2023-03-01T05:53:05;29;27;
49644;PMS5003;36494;50.730;-1.932;2023-03-01T05:55:30;35;33;
49644;PMS5003;36494;50.730;-1.932;2023-03-01T05:57:55;30;29;
49644;PMS5003;36494;50.730;-1.932;2023-03-01T06:00:20;30;30;
49644;PMS5003;36494;50.730;-1.932;2023-03-01T06:02:46;31;29;
49644;PMS5003;36494;50.730;-1.932;2023-03-01T06:05:12;33;30;
49644;PMS5003;36494;50.730;-1.932;2023-03-01T06:07:37;36;32;
49644;PMS5003;36494;50.730;-1.932;2023-03-01T06:10:03;30;27;
49644;PMS5003;36494;50.730;-1.932;2023-03-01T06:12:29;36;35;
49644;PMS5003;36494;50.730;-1.932;2023-03-01T06:14:53;33;32;
49644;PMS5003;36494;50.730;-1.932;2023-03-01T06:17:19;35;34;
49644;PMS5003;36494;50.730;-1.932;2023-03-01T06:19:44;32;31;
49644;PMS5003;36494;50.730;-1.932;2023-03-01T06:22:10;35;32;
49644;PMS5003;36494;50.730;-1.932;2023-03-01T06:24:36;33;30;
49644;PMS5003;36494;50.730;-1.932;2023-03-01T06:27:01;32;30;
49644;PMS5003;36494;50.730;-1.932;2023-03-01T06:29:26;32;31;
49644;PMS5003;36494;50.730;-1.932;2023-03-01T06:31:52;32;32;
49644;PMS5003;36494;50.730;-1.932;2023-03-01T06:34:17;32;31;
49644;PMS5003;36494;50.730;-1.932;2023-03-01T06:36:42;32;28;
49644;PMS5003;36494;50.730;-1.932;2023-03-01T06:39:08;29;27;
49644;PMS5003;36494;50.730;-1.932;2023-03-01T06:41:33;28;28;
49644;PMS5003;36494;50.730;-1.932;2023-03-01T06:43:59;35;31;
49644;PMS5003;36494;50.730;-1.932;2023-03-01T06:46:24;29;28;
49644;PMS5003;36494;50.730;-1.932;2023-03-01T06:48:49;23;23;
49644;PMS5003;36494;50.730;-1.932;2023-03-01T06:51:15;20;20;
49644;PMS5003;36494;50.730;-1.932;2023-03-01T06:53:40;22;20;
49644;PMS5003;36494;50.730;-1.932;2023-03-01T06:56:06;19;18;
49644;PMS5003;36494;50.730;-1.932;2023-03-01T06:58:32;19;17;
49644;PMS5003;36494;50.730;-1.932;2023-03-01T07:00:58;20;18;
49644;PMS5003;36494;50.730;-1.932;2023-03-01T07:03:23;17;17;
49644;PMS5003;36494;50.730;-1.932;2023-03-01T07:05:48;16;15;
49644;PMS5003;36494;50.730;-1.932;2023-03-01T07:08:13;13;13;
49644;PMS5003;36494;50.730;-1.932;2023-03-01T07:10:39;11;11;
49644;PMS5003;36494;50.730;-1.932;2023-03-01T07:13:04;13;12;
49644;PMS5003;36494;50.730;-1.932;2023-03-01T07:15:29;14;14;
49644;PMS5003;36494;50.730;-1.932;2023-03-01T07:17:55;9;9;
49644;PMS5003;36494;50.730;-1.932;2023-03-01T07:20:20;13;11;
49644;PMS5003;36494;50.730;-1.932;2023-03-01T07:22:46;10;10;
49644;PMS5003;36494;50.730;-1.932;2023-03-01T07:25:11;11;9;
49644;PMS5003;36494;50.730;-1.932;2023-03-01T07:27:36;9;9;
49644;PMS5003;36494;50.730;-1.932;2023-03-01T07:30:02;8;7;
49644;PMS5003;36494;50.730;-1.932;2023-03-01T07:32:27;11;10;
49644;PMS5003;36494;50.730;-1.932;2023-03-01T07:34:53;8;8;
49644;PMS5003;36494;50.730;-1.932;2023-03-01T07:37:18;6;5;
49644;PMS5003;36494;50.730;-1.932;2023-03-01T07:39:44;7;7;
49644;PMS5003;36494;50.730;-1.932;2023-03-01T07:42:09;6;5;
49644;PMS5003;36494;50.730;-1.932;2023-03-01T07:44:35;6;5;
49644;PMS5003;36494;50.730;-1.932;2023-03-01T07:47:01;5;5;
49644;PMS5003;36494;50.730;-1.932;2023-03-01T07:49:26;6;6;
49644;PMS5003;36494;50.730;-1.932;2023-03-01T07:51:51;7;7;
49644;PMS5003;36494;50.730;-1.932;2023-03-01T07:54:17;7;7;
49644;PMS5003;36494;50.730;-1.932;2023-03-01T07:56:42;10;10;
49644;PMS5003;36494;50.730;-1.932;2023-03-01T07:59:07;8;7;
49644;PMS5003;36494;50.730;-1.932;2023-03-01T08:01:33;6;5;
49644;PMS5003;36494;50.730;-1.932;2023-03-01T08:03:58;6;6;
49644;PMS5003;36494;50.730;-1.932;2023-03-01T08:06:24;5;5;
49644;PMS5003;36494;50.730;-1.932;2023-03-01T08:08:49;8;7;
49644;PMS5003;36494;50.730;-1.932;2023-03-01T08:11:15;8;8;
49644;PMS5003;36494;50.730;-1.932;2023-03-01T08:13:40;4;4;
49644;PMS5003;36494;50.730;-1.932;2023-03-01T08:16:06;5;5;
49644;PMS5003;36494;50.730;-1.932;2023-03-01T08:18:31;6;6;
49644;PMS5003;36494;50.730;-1.932;2023-03-01T08:21:00;6;6;
49644;PMS5003;36494;50.730;-1.932;2023-03-01T08:23:22;6;5;
49644;PMS5003;36494;50.730;-1.932;2023-03-01T08:25:47;6;6;
49644;PMS5003;36494;50.730;-1.932;2023-03-01T08:28:13;6;6;
49644;PMS5003;36494;50.730;-1.932;2023-03-01T08:30:38;8;7;
49644;PMS5003;36494;50.730;-1.932;2023-03-01T08:33:04;8;8;
49644;PMS5003;36494;50.730;-1.932;2023-03-01T08:35:29;8;7;
49644;PMS5003;36494;50.730;-1.932;2023-03-01T08:37:55;5;4;
49644;PMS5003;36494;50.730;-1.932;2023-03-01T08:40:20;7;7;
49644;PMS5003;36494;50.730;-1.932;2023-03-01T08:42:45;6;6;
49644;PMS5003;36494;50.730;-1.932;2023-03-01T08:45:11;6;6;
49644;PMS5003;36494;50.730;-1.932;2023-03-01T08:47:36;9;8;
49644;PMS5003;36494;50.730;-1.932;2023-03-01T08:50:02;7;6;
49644;PMS5003;36494;50.730;-1.932;2023-03-01T08:52:27;6;6;
49644;PMS5003;36494;50.730;-1.932;2023-03-01T08:54:53;7;7;
49644;PMS5003;36494;50.730;-1.932;2023-03-01T08:57:18;9;8;
49644;PMS5003;36494;50.730;-1.932;2023-03-01T08:59:44;6;6;
49644;PMS5003;36494;50.730;-1.932;2023-03-01T09:02:11;7;6;
49644;PMS5003;36494;50.730;-1.932;2023-03-01T09:04:35;6;5;
49644;PMS5003;36494;50.730;-1.932;2023-03-01T09:07:00;7;7;
49644;PMS5003;36494;50.730;-1.932;2023-03-01T09:09:26;8;8;
49644;PMS5003;36494;50.730;-1.932;2023-03-01T09:11:51;7;7;
49644;PMS5003;36494;50.730;-1.932;2023-03-01T09:14:16;8;8;
49644;PMS5003;36494;50.730;-1.932;2023-03-01T09:16:42;7;7;
49644;PMS5003;36494;50.730;-1.932;2023-03-01T09:19:07;8;8;
49644;PMS5003;36494;50.730;-1.932;2023-03-01T09:21:33;9;8;
49644;PMS5003;36494;50.730;-1.932;2023-03-01T09:23:58;6;6;
49644;PMS5003;36494;50.730;-1.932;2023-03-01T09:26:24;6;6;
49644;PMS5003;36494;50.730;-1.932;2023-03-01T09:28:50;8;8;
49644;PMS5003;36494;50.730;-1.932;2023-03-01T09:31:15;9;8;
49644;PMS5003;36494;50.730;-1.932;2023-03-01T09:33:41;6;6;
49644;PMS5003;36494;50.730;-1.932;2023-03-01T09:36:06;6;6;
49644;PMS5003;36494;50.730;-1.932;2023-03-01T09:38:31;8;8;
49644;PMS5003;36494;50.730;-1.932;2023-03-01T09:40:56;5;5;
49644;PMS5003;36494;50.730;-1.932;2023-03-01T09:43:23;5;5;
49644;PMS5003;36494;50.730;-1.932;2023-03-01T09:45:47;5;4;
49644;PMS5003;36494;50.730;-1.932;2023-03-01T09:48:15;7;7;
49644;PMS5003;36494;50.730;-1.932;2023-03-01T09:50:38;9;9;
49644;PMS5003;36494;50.730;-1.932;2023-03-01T09:53:04;7;6;
49644;PMS5003;36494;50.730;-1.932;2023-03-01T09:55:30;9;8;
49644;PMS5003;36494;50.730;-1.932;2023-03-01T09:57:55;9;8;
49644;PMS5003;36494;50.730;-1.932;2023-03-01T10:00:22;8;8;
49644;PMS5003;36494;50.730;-1.932;2023-03-01T10:02:46;6;6;
49644;PMS5003;36494;50.730;-1.932;2023-03-01T10:05:13;7;7;
49644;PMS5003;36494;50.730;-1.932;2023-03-01T10:07:37;7;7;
49644;PMS5003;36494;50.730;-1.932;2023-03-01T10:10:02;8;8;
49644;PMS5003;36494;50.730;-1.932;2023-03-01T10:12:27;8;8;
49644;PMS5003;36494;50.730;-1.932;2023-03-01T10:14:54;9;8;
49644;PMS5003;36494;50.730;-1.932;2023-03-01T10:17:20;5;5;
49644;PMS5003;36494;50.730;-1.932;2023-03-01T10:19:43;7;6;
49644;PMS5003;36494;50.730;-1.932;2023-03-01T10:22:11;4;4;
49644;PMS5003;36494;50.730;-1.932;2023-03-01T10:24:34;5;5;
49644;PMS5003;36494;50.730;-1.932;2023-03-01T10:27:01;7;6;
49644;PMS5003;36494;50.730;-1.932;2023-03-01T10:29:26;6;6;
49644;PMS5003;36494;50.730;-1.932;2023-03-01T10:31:50;8;7;
49644;PMS5003;36494;50.730;-1.932;2023-03-01T10:34:16;7;7;
49644;PMS5003;36494;50.730;-1.932;2023-03-01T10:36:42;6;5;
49644;PMS5003;36494;50.730;-1.932;2023-03-01T10:39:11;22;22;
49644;PMS5003;36494;50.730;-1.932;2023-03-01T10:41:32;18;17;
49644;PMS5003;36494;50.730;-1.932;2023-03-01T10:43:58;23;23;
49644;PMS5003;36494;50.730;-1.932;2023-03-01T10:46:24;28;28;
49644;PMS5003;36494;50.730;-1.932;2023-03-01T10:51:16;18;18;
49644;PMS5003;36494;50.730;-1.932;2023-03-01T10:53:41;37;37;
49644;PMS5003;36494;50.730;-1.932;2023-03-01T10:56:07;7;7;
49644;PMS5003;36494;50.730;-1.932;2023-03-01T10:58:32;15;15;
49644;PMS5003;36494;50.730;-1.932;2023-03-01T11:00:58;12;12;
49644;PMS5003;36494;50.730;-1.932;2023-03-01T11:03:23;7;7;
49644;PMS5003;36494;50.730;-1.932;2023-03-01T11:05:55;10;10;
49644;PMS5003;36494;50.730;-1.932;2023-03-01T11:08:13;15;14;
49644;PMS5003;36494;50.730;-1.932;2023-03-01T11:10:39;21;20;
49644;PMS5003;36494;50.730;-1.932;2023-03-01T11:13:07;48;47;
49644;PMS5003;36494;50.730;-1.932;2023-03-01T11:15:30;6;6;
49644;PMS5003;36494;50.730;-1.932;2023-03-01T11:17:55;10;9;
49644;PMS5003;36494;50.730;-1.932;2023-03-01T11:20:24;13;13;
49644;PMS5003;36494;50.730;-1.932;2023-03-01T11:22:47;71;71;
49644;PMS5003;36494;50.730;-1.932;2023-03-01T11:25:12;72;72;
49644;PMS5003;36494;50.730;-1.932;2023-03-01T11:27:38;10;10;
49644;PMS5003;36494;50.730;-1.932;2023-03-01T11:30:04;36;36;
49644;PMS5003;36494;50.730;-1.932;2023-03-01T11:32:31;16;15;
49644;PMS5003;36494;50.730;-1.932;2023-03-01T11:34:55;24;24;
49644;PMS5003;36494;50.730;-1.932;2023-03-01T11:37:21;25;24;
49644;PMS5003;36494;50.730;-1.932;2023-03-01T11:39:46;21;21;
49644;PMS5003;36494;50.730;-1.932;2023-03-01T11:42:11;26;26;
49644;PMS5003;36494;50.730;-1.932;2023-03-01T11:44:36;23;22;
49644;PMS5003;36494;50.730;-1.932;2023-03-01T11:47:07;27;27;
49644;PMS5003;36494;50.730;-1.932;2023-03-01T11:49:36;38;37;
49644;PMS5003;36494;50.730;-1.932;2023-03-01T11:51:54;26;26;
49644;PMS5003;36494;50.730;-1.932;2023-03-01T11:54:22;19;19;
49644;PMS5003;36494;50.730;-1.932;2023-03-01T11:56:45;13;13;
49644;PMS5003;36494;50.730;-1.932;2023-03-01T12:01:38;11;11;
49644;PMS5003;36494;50.730;-1.932;2023-03-01T12:04:05;10;10;
49644;PMS5003;36494;50.730;-1.932;2023-03-01T12:06:28;14;14;
49644;PMS5003;36494;50.730;-1.932;2023-03-01T12:08:54;23;22;
49644;PMS5003;36494;50.730;-1.932;2023-03-01T12:11:20;14;13;
49644;PMS5003;36494;50.730;-1.932;2023-03-01T12:13:47;13;13;
49644;PMS5003;36494;50.730;-1.932;2023-03-01T12:16:10;9;9;
49644;PMS5003;36494;50.730;-1.932;2023-03-01T12:18:38;13;13;
49644;PMS5003;36494;50.730;-1.932;2023-03-01T12:21:00;15;15;
49644;PMS5003;36494;50.730;-1.932;2023-03-01T12:23:34;5;5;
49644;PMS5003;36494;50.730;-1.932;2023-03-01T12:25:51;25;24;
49644;PMS5003;36494;50.730;-1.932;2023-03-01T12:28:18;18;18;
49644;PMS5003;36494;50.730;-1.932;2023-03-01T12:30:44;34;34;
49644;PMS5003;36494;50.730;-1.932;2023-03-01T12:33:10;8;7;
49644;PMS5003;36494;50.730;-1.932;2023-03-01T12:35:35;14;14;
49644;PMS5003;36494;50.730;-1.932;2023-03-01T12:37:59;18;18;
49644;PMS5003;36494;50.730;-1.932;2023-03-01T12:40:27;14;14;
49644;PMS5003;36494;50.730;-1.932;2023-03-01T12:42:49;24;23;
49644;PMS5003;36494;50.730;-1.932;2023-03-01T12:47:43;11;10;
49644;PMS5003;36494;50.730;-1.932;2023-03-01T12:50:05;10;10;
49644;PMS5003;36494;50.730;-1.932;2023-03-01T12:52:32;6;6;
49644;PMS5003;36494;50.730;-1.932;2023-03-01T12:54:54;12;12;
49644;PMS5003;36494;50.730;-1.932;2023-03-01T12:57:21;10;10;
49644;PMS5003;36494;50.730;-1.932;2023-03-01T12:59:48;9;9;
49644;PMS5003;36494;50.730;-1.932;2023-03-01T13:02:13;10;10;
49644;PMS5003;36494;50.730;-1.932;2023-03-01T13:04:40;9;9;
49644;PMS5003;36494;50.730;-1.932;2023-03-01T13:07:06;5;5;
49644;PMS5003;36494;50.730;-1.932;2023-03-01T13:09:29;10;10;
49644;PMS5003;36494;50.730;-1.932;2023-03-01T13:11:52;12;12;
49644;PMS5003;36494;50.730;-1.932;2023-03-01T13:16:44;27;27;
49644;PMS5003;36494;50.730;-1.932;2023-03-01T13:19:12;23;22;
49644;PMS5003;36494;50.730;-1.932;2023-03-01T13:21:35;5;5;
49644;PMS5003;36494;50.730;-1.932;2023-03-01T13:24:00;6;6;
49644;PMS5003;36494;50.730;-1.932;2023-03-01T13:26:26;6;6;
49644;PMS5003;36494;50.730;-1.932;2023-03-01T13:28:53;7;7;
49644;PMS5003;36494;50.730;-1.932;2023-03-01T13:33:43;3;3;
49644;PMS5003;36494;50.730;-1.932;2023-03-01T13:36:08;11;11;
49644;PMS5003;36494;50.730;-1.932;2023-03-01T13:38:37;17;16;
49644;PMS5003;36494;50.730;-1.932;2023-03-01T13:40:59;4;4;
49644;PMS5003;36494;50.730;-1.932;2023-03-01T13:43:29;6;5;
49644;PMS5003;36494;50.730;-1.932;2023-03-01T13:45:50;7;6;
49644;PMS5003;36494;50.730;-1.932;2023-03-01T13:48:16;4;4;
49644;PMS5003;36494;50.730;-1.932;2023-03-01T13:50:44;6;6;
49644;PMS5003;36494;50.730;-1.932;2023-03-01T13:53:06;14;13;
49644;PMS5003;36494;50.730;-1.932;2023-03-01T13:55:34;10;10;
49644;PMS5003;36494;50.730;-1.932;2023-03-01T13:57:57;18;16;
49644;PMS5003;36494;50.730;-1.932;2023-03-01T14:00:26;22;22;
49644;PMS5003;36494;50.730;-1.932;2023-03-01T14:05:13;4;4;
49644;PMS5003;36494;50.730;-1.932;2023-03-01T14:07:38;5;5;
49644;PMS5003;36494;50.730;-1.932;2023-03-01T14:10:04;5;5;
49644;PMS5003;36494;50.730;-1.932;2023-03-01T14:12:33;7;7;
49644;PMS5003;36494;50.730;-1.932;2023-03-01T14:14:56;12;12;
49644;PMS5003;36494;50.730;-1.932;2023-03-01T14:19:45;109;105;
49644;PMS5003;36494;50.730;-1.932;2023-03-01T14:22:13;10;9;
49644;PMS5003;36494;50.730;-1.932;2023-03-01T14:24:37;16;14;
49644;PMS5003;36494;50.730;-1.932;2023-03-01T14:27:01;13;13;
49644;PMS5003;36494;50.730;-1.932;2023-03-01T14:29:27;15;15;
49644;PMS5003;36494;50.730;-1.932;2023-03-01T14:31:52;5;5;
49644;PMS5003;36494;50.730;-1.932;2023-03-01T14:34:19;9;8;
49644;PMS5003;36494;50.730;-1.932;2023-03-01T14:36:43;12;12;
49644;PMS5003;36494;50.730;-1.932;2023-03-01T14:39:17;15;15;
49644;PMS5003;36494;50.730;-1.932;2023-03-01T14:41:35;14;13;
49644;PMS5003;36494;50.730;-1.932;2023-03-01T14:44:01;29;28;
49644;PMS5003;36494;50.730;-1.932;2023-03-01T14:46:26;12;12;
49644;PMS5003;36494;50.730;-1.932;2023-03-01T14:48:52;34;33;
49644;PMS5003;36494;50.730;-1.932;2023-03-01T14:51:17;13;12;
49644;PMS5003;36494;50.730;-1.932;2023-03-01T14:53:42;15;14;
49644;PMS5003;36494;50.730;-1.932;2023-03-01T14:56:12;11;10;
49644;PMS5003;36494;50.730;-1.932;2023-03-01T14:58:34;16;15;
49644;PMS5003;36494;50.730;-1.932;2023-03-01T15:01:00;12;10;
49644;PMS5003;36494;50.730;-1.932;2023-03-01T15:03:26;7;7;
49644;PMS5003;36494;50.730;-1.932;2023-03-01T15:05:50;31;31;
49644;PMS5003;36494;50.730;-1.932;2023-03-01T15:08:16;7;7;
49644;PMS5003;36494;50.730;-1.932;2023-03-01T15:10:54;20;19;
49644;PMS5003;36494;50.730;-1.932;2023-03-01T15:13:10;9;8;
49644;PMS5003;36494;50.730;-1.932;2023-03-01T15:15:34;8;8;
49644;PMS5003;36494;50.730;-1.932;2023-03-01T15:17:58;3;3;
49644;PMS5003;36494;50.730;-1.932;2023-03-01T15:20:23;6;6;
49644;PMS5003;36494;50.730;-1.932;2023-03-01T15:22:48;4;4;
49644;PMS5003;36494;50.730;-1.932;2023-03-01T15:25:14;5;5;
49644;PMS5003;36494;50.730;-1.932;2023-03-01T15:27:45;47;47;
49644;PMS5003;36494;50.730;-1.932;2023-03-01T15:30:04;9;9;
49644;PMS5003;36494;50.730;-1.932;2023-03-01T15:32:30;11;11;
49644;PMS5003;36494;50.730;-1.932;2023-03-01T15:34:55;10;10;
49644;PMS5003;36494;50.730;-1.932;2023-03-01T15:42:11;6;5;
49644;PMS5003;36494;50.730;-1.932;2023-03-01T15:44:37;6;6;
49644;PMS5003;36494;50.730;-1.932;2023-03-01T15:47:02;6;6;
49644;PMS5003;36494;50.730;-1.932;2023-03-01T15:49:32;6;5;
49644;PMS5003;36494;50.730;-1.932;2023-03-01T15:51:53;3;3;
49644;PMS5003;36494;50.730;-1.932;2023-03-01T15:54:18;6;6;
49644;PMS5003;36494;50.730;-1.932;2023-03-01T15:56:43;5;5;
49644;PMS5003;36494;50.730;-1.932;2023-03-01T15:59:09;4;4;
49644;PMS5003;36494;50.730;-1.932;2023-03-01T16:01:34;8;8;
49644;PMS5003;36494;50.730;-1.932;2023-03-01T16:04:00;7;6;
49644;PMS5003;36494;50.730;-1.932;2023-03-01T16:06:25;8;7;
49644;PMS5003;36494;50.730;-1.932;2023-03-01T16:08:50;10;10;
49644;PMS5003;36494;50.730;-1.932;2023-03-01T16:11:17;9;8;
49644;PMS5003;36494;50.730;-1.932;2023-03-01T16:13:41;9;9;
49644;PMS5003;36494;50.730;-1.932;2023-03-01T16:16:08;10;9;
49644;PMS5003;36494;50.730;-1.932;2023-03-01T16:18:32;13;13;
49644;PMS5003;36494;50.730;-1.932;2023-03-01T16:20:57;9;9;